createdAt,value
2016-07-05T00:00:57.146Z,69.39
2016-07-05T00:01:57.154Z,69.49
2016-07-05T00:02:57.159Z,69.2
2016-07-05T00:03:57.150Z,69.29
2016-07-05T00:04:57.152Z,69.29
2016-07-05T00:05:57.152Z,69.39
2016-07-05T00:06:57.159Z,69.58
2016-07-05T00:07:57.166Z,69.39
2016-07-05T00:08:57.155Z,69.78
2016-07-05T00:09:57.149Z,69.49
2016-07-05T00:10:57.154Z,69.49
2016-07-05T00:11:57.150Z,69.49
2016-07-05T00:12:57.147Z,69.58
2016-07-05T00:13:57.161Z,69.49
2016-07-05T00:14:57.152Z,69.49
2016-07-05T00:15:57.147Z,69.49
2016-07-05T00:16:57.157Z,69.58
2016-07-05T00:17:57.152Z,69.49
2016-07-05T00:18:57.160Z,69.49
2016-07-05T00:19:57.175Z,69.68
2016-07-05T00:20:57.153Z,69.29
2016-07-05T00:21:57.159Z,69.29
2016-07-05T00:22:57.356Z,69.68
2016-07-05T00:23:57.158Z,69.55
2016-07-05T00:24:57.156Z,69.58
2016-07-05T00:25:57.150Z,69.45
2016-07-05T00:26:57.144Z,69.74
2016-07-05T00:27:57.150Z,69.49
2016-07-05T00:28:57.144Z,69.45
2016-07-05T00:29:57.140Z,69.64
2016-07-05T00:30:57.156Z,69.58
2016-07-05T00:31:57.155Z,69.74
2016-07-05T00:32:57.152Z,69.64
2016-07-05T00:33:57.156Z,69.74
2016-07-05T00:34:57.157Z,69.84
2016-07-05T00:35:57.153Z,69.84
2016-07-05T00:36:57.154Z,70.03
2016-07-05T00:37:57.159Z,70.03
2016-07-05T00:38:57.154Z,69.93
2016-07-05T00:39:57.155Z,69.55
2016-07-05T00:40:57.150Z,69.84
2016-07-05T00:41:57.170Z,70.03
2016-07-05T00:42:57.151Z,69.93
2016-07-05T00:43:57.142Z,69.64
2016-07-05T00:44:57.148Z,69.64
2016-07-05T00:45:57.358Z,69.93
2016-07-05T00:46:57.360Z,69.74
2016-07-05T00:47:57.167Z,69.84
2016-07-05T00:48:57.157Z,69.55
2016-07-05T00:49:57.157Z,69.84
2016-07-05T00:50:57.157Z,69.84
2016-07-05T00:51:57.156Z,69.55
2016-07-05T00:52:57.155Z,69.64
2016-07-05T00:53:57.143Z,69.93
2016-07-05T00:54:57.146Z,69.64
2016-07-05T00:55:57.160Z,69.84
2016-07-05T00:56:57.159Z,69.64
2016-07-05T00:57:57.156Z,69.64
2016-07-05T00:58:57.154Z,69.64
2016-07-05T00:59:57.153Z,69.84
2016-07-05T01:00:57.354Z,69.64
2016-07-05T01:01:57.150Z,69.74
2016-07-05T01:02:57.144Z,69.55
2016-07-05T01:03:57.150Z,69.64
2016-07-05T01:04:57.147Z,69.64
2016-07-05T01:05:57.139Z,70
2016-07-05T01:06:57.149Z,69.74
2016-07-05T01:07:57.149Z,69.74
2016-07-05T01:08:57.142Z,70.19
2016-07-05T01:09:57.144Z,69.84
2016-07-05T01:10:57.153Z,69.74
2016-07-05T01:11:57.146Z,69.9
2016-07-05T01:12:57.152Z,69.74
2016-07-05T01:13:57.149Z,70.13
2016-07-05T01:14:57.344Z,69.71
2016-07-05T01:15:57.148Z,69.84
2016-07-05T01:16:57.154Z,69.8
2016-07-05T01:17:57.148Z,69.8
2016-07-05T01:18:57.147Z,69.71
2016-07-05T01:19:57.149Z,69.71
2016-07-05T01:20:57.147Z,69.71
2016-07-05T01:21:57.148Z,69.61
2016-07-05T01:22:57.157Z,69.71
2016-07-05T01:23:57.345Z,69.8
2016-07-05T01:24:57.150Z,69.71
2016-07-05T01:25:57.150Z,69.71
2016-07-05T01:26:57.147Z,69.71
2016-07-05T01:27:57.352Z,70.19
2016-07-05T01:28:57.148Z,69.71
2016-07-05T01:29:57.145Z,69.71
2016-07-05T01:30:57.147Z,69.8
2016-07-05T01:31:57.137Z,69.8
2016-07-05T01:32:57.136Z,69.71
2016-07-05T01:33:57.141Z,69.71
2016-07-05T01:34:57.143Z,69.71
2016-07-05T01:35:57.139Z,69.61
2016-07-05T01:36:57.147Z,69.8
2016-07-05T01:37:57.144Z,69.61
2016-07-05T01:38:57.143Z,69.9
2016-07-05T01:39:57.144Z,69.61
2016-07-05T01:40:57.136Z,69.71
2016-07-05T01:41:57.150Z,70
2016-07-05T01:42:57.143Z,69.8
2016-07-05T01:43:57.157Z,69.71
2016-07-05T01:44:57.134Z,69.61
2016-07-05T01:45:57.141Z,69.71
2016-07-05T01:46:57.141Z,69.71
2016-07-05T01:47:57.344Z,69.71
2016-07-05T01:48:57.145Z,69.71
2016-07-05T01:49:57.144Z,69.71
2016-07-05T01:50:57.138Z,69.8
2016-07-05T01:51:57.145Z,69.9
2016-07-05T01:52:57.137Z,69.61
2016-07-05T01:53:57.138Z,69.71
2016-07-05T01:54:57.339Z,69.9
2016-07-05T01:55:57.135Z,69.9
2016-07-05T01:56:57.138Z,69.71
2016-07-05T01:57:57.146Z,69.61
2016-07-05T01:58:57.142Z,69.9
2016-07-05T01:59:57.200Z,69.51
2016-07-05T02:00:57.263Z,69.61
2016-07-05T02:01:57.458Z,69.71
2016-07-05T02:02:57.440Z,69.57
2016-07-05T02:03:57.127Z,69.61
2016-07-05T02:04:57.200Z,69.96
2016-07-05T02:05:57.190Z,69.61
2016-07-05T02:06:57.180Z,69.96
2016-07-05T02:07:57.132Z,69.67
2016-07-05T02:08:57.256Z,69.61
2016-07-05T02:09:57.127Z,69.38
2016-07-05T02:10:57.345Z,69.48
2016-07-05T02:11:57.122Z,69.77
2016-07-05T02:12:57.133Z,69.71
2016-07-05T02:13:57.143Z,69.48
2016-07-05T02:14:57.133Z,70.06
2016-07-05T02:15:57.127Z,69.57
2016-07-05T02:16:57.127Z,69.77
2016-07-05T02:17:57.137Z,69.57
2016-07-05T02:18:57.134Z,69.71
2016-07-05T02:19:57.132Z,69.57
2016-07-05T02:20:57.130Z,69.9
2016-07-05T02:21:57.131Z,69.9
2016-07-05T02:22:57.128Z,69.96
2016-07-05T02:23:57.127Z,69.67
2016-07-05T02:24:57.127Z,69.38
2016-07-05T02:25:57.127Z,69.57
2016-07-05T02:26:57.128Z,69.57
2016-07-05T02:27:57.116Z,69.87
2016-07-05T02:28:57.317Z,69.87
2016-07-05T02:29:57.117Z,69.77
2016-07-05T02:30:57.320Z,69.96
2016-07-05T02:31:57.117Z,69.87
2016-07-05T02:32:57.118Z,69.87
2016-07-05T02:33:57.113Z,69.96
2016-07-05T02:34:57.312Z,69.77
2016-07-05T02:35:57.113Z,69.87
2016-07-05T02:36:57.112Z,69.96
2016-07-05T02:37:57.120Z,69.57
2016-07-05T02:38:57.117Z,69.77
2016-07-05T02:39:57.111Z,69.67
2016-07-05T02:40:57.115Z,69.57
2016-07-05T02:41:57.114Z,69.87
2016-07-05T02:42:57.106Z,69.77
2016-07-05T02:43:57.103Z,69.67
2016-07-05T02:44:57.115Z,69.67
2016-07-05T02:45:57.111Z,69.67
2016-07-05T02:46:57.105Z,69.87
2016-07-05T02:47:57.115Z,69.77
2016-07-05T02:48:57.106Z,69.57
2016-07-05T02:49:57.108Z,69.87
2016-07-05T02:50:57.106Z,69.87
2016-07-05T02:51:57.117Z,69.96
2016-07-05T02:52:57.114Z,69.87
2016-07-05T02:53:57.113Z,69.96
2016-07-05T02:54:57.112Z,69.96
2016-07-05T02:55:57.113Z,69.87
2016-07-05T02:56:57.128Z,69.96
2016-07-05T02:57:57.101Z,69.96
2016-07-05T02:58:57.098Z,69.96
2016-07-05T02:59:57.101Z,69.96
2016-07-05T03:00:57.100Z,69.87
2016-07-05T03:01:57.106Z,69.96
2016-07-05T03:02:57.108Z,69.96
2016-07-05T03:03:57.101Z,69.96
2016-07-05T03:04:57.105Z,69.96
2016-07-05T03:05:57.094Z,69.96
2016-07-05T03:06:57.103Z,69.96
2016-07-05T03:07:57.090Z,69.96
2016-07-05T03:08:57.107Z,69.96
2016-07-05T03:09:57.097Z,69.87
2016-07-05T03:10:57.299Z,69.96
2016-07-05T03:11:57.103Z,69.87
2016-07-05T03:12:57.103Z,69.87
2016-07-05T03:13:57.107Z,69.87
2016-07-05T03:14:57.092Z,69.96
2016-07-05T03:15:57.097Z,69.96
2016-07-05T03:16:57.098Z,69.77
2016-07-05T03:17:57.098Z,69.96
2016-07-05T03:18:57.093Z,69.48
2016-07-05T03:19:57.096Z,69.96
2016-07-05T03:20:57.095Z,69.96
2016-07-05T03:21:57.086Z,69.87
2016-07-05T03:22:57.088Z,69.96
2016-07-05T03:23:57.093Z,69.57
2016-07-05T03:24:57.088Z,69.77
2016-07-05T03:25:57.092Z,69.77
2016-07-05T03:26:57.094Z,69.77
2016-07-05T03:27:57.089Z,69.48
2016-07-05T03:28:57.086Z,69.48
2016-07-05T03:29:57.086Z,69.57
2016-07-05T03:30:57.083Z,69.57
2016-07-05T03:31:57.086Z,69.77
2016-07-05T03:32:57.090Z,69.48
2016-07-05T03:33:57.287Z,69.67
2016-07-05T03:34:57.072Z,69.57
2016-07-05T03:35:57.080Z,69.57
2016-07-05T03:36:57.085Z,69.67
2016-07-05T03:37:57.076Z,69.57
2016-07-05T03:38:57.290Z,69.57
2016-07-05T03:39:57.076Z,69.48
2016-07-05T03:40:57.069Z,69.48
2016-07-05T03:41:57.072Z,69.87
2016-07-05T03:42:57.073Z,69.77
2016-07-05T03:43:57.075Z,69.67
2016-07-05T03:44:57.273Z,69.87
2016-07-05T03:45:57.066Z,69.48
2016-07-05T03:46:57.065Z,69.87
2016-07-05T03:47:57.074Z,69.38
2016-07-05T03:48:57.060Z,69.57
2016-07-05T03:49:57.076Z,69.57
2016-07-05T03:50:57.067Z,69.48
2016-07-05T03:51:57.066Z,69.96
2016-07-05T03:52:57.062Z,70.06
2016-07-05T03:53:57.066Z,69.54
2016-07-05T03:54:57.067Z,69.87
2016-07-05T03:55:57.072Z,69.57
2016-07-05T03:56:57.073Z,69.57
2016-07-05T03:57:57.067Z,69.93
2016-07-05T03:58:57.057Z,69.57
2016-07-05T03:59:57.060Z,69.93
2016-07-05T04:00:57.058Z,69.87
2016-07-05T04:01:57.058Z,70.06
2016-07-05T04:02:57.068Z,70.02
2016-07-05T04:03:57.063Z,69.67
2016-07-05T04:04:57.062Z,70.02
2016-07-05T04:05:57.052Z,69.73
2016-07-05T04:06:57.049Z,69.64
2016-07-05T04:07:57.054Z,69.73
2016-07-05T04:08:57.063Z,70.02
2016-07-05T04:09:57.059Z,69.64
2016-07-05T04:10:57.059Z,69.83
2016-07-05T04:11:57.051Z,69.83
2016-07-05T04:12:57.260Z,69.54
2016-07-05T04:13:57.246Z,69.64
2016-07-05T04:14:57.072Z,69.93
2016-07-05T04:15:57.053Z,69.64
2016-07-05T04:16:57.053Z,70.12
2016-07-05T04:17:57.060Z,70.12
2016-07-05T04:18:57.051Z,69.64
2016-07-05T04:19:57.053Z,69.64
2016-07-05T04:20:57.052Z,69.83
2016-07-05T04:21:57.038Z,69.83
2016-07-05T04:22:57.039Z,69.64
2016-07-05T04:23:57.038Z,69.83
2016-07-05T04:24:57.050Z,69.64
2016-07-05T04:25:57.254Z,69.93
2016-07-05T04:26:57.047Z,69.83
2016-07-05T04:27:57.048Z,70.02
2016-07-05T04:28:57.044Z,69.93
2016-07-05T04:29:57.044Z,69.93
2016-07-05T04:30:57.037Z,70.02
2016-07-05T04:31:57.036Z,70.02
2016-07-05T04:32:57.029Z,70.12
2016-07-05T04:33:57.041Z,70.41
2016-07-05T04:34:57.035Z,70.31
2016-07-05T04:35:57.032Z,70.31
2016-07-05T04:36:57.029Z,70.41
2016-07-05T04:37:57.045Z,70.12
2016-07-05T04:38:57.034Z,70.41
2016-07-05T04:39:57.028Z,70.41
2016-07-05T04:40:57.023Z,70.21
2016-07-05T04:41:57.033Z,70.31
2016-07-05T04:42:57.021Z,70.41
2016-07-05T04:43:57.033Z,70.02
2016-07-05T04:44:57.224Z,70.12
2016-07-05T04:45:57.022Z,70.02
2016-07-05T04:46:57.030Z,70.12
2016-07-05T04:47:57.223Z,70.02
2016-07-05T04:48:57.019Z,70.02
2016-07-05T04:49:57.015Z,70.12
2016-07-05T04:50:57.022Z,70.6
2016-07-05T04:51:57.014Z,70.6
2016-07-05T04:52:57.012Z,70.5
2016-07-05T04:53:57.023Z,70.5
2016-07-05T04:54:57.017Z,70.21
2016-07-05T04:55:57.018Z,70.5
2016-07-05T04:56:57.018Z,70.18
2016-07-05T04:57:57.010Z,70.31
2016-07-05T04:58:57.015Z,70.7
2016-07-05T04:59:57.013Z,70.5
2016-07-05T05:00:57.016Z,70.41
2016-07-05T05:01:57.017Z,70.31
2016-07-05T05:02:57.011Z,70.12
2016-07-05T05:03:57.008Z,70.21
2016-07-05T05:04:57.009Z,70.12
2016-07-05T05:05:57.008Z,70.21
2016-07-05T05:06:57.004Z,70.5
2016-07-05T05:07:57.203Z,70.6
2016-07-05T05:08:57.197Z,70.41
2016-07-05T05:09:56.990Z,70.5
2016-07-05T05:10:57.004Z,70.31
2016-07-05T05:11:56.997Z,70.5
2016-07-05T05:12:56.999Z,70.5
2016-07-05T05:13:56.998Z,70.6
2016-07-05T05:14:56.995Z,70.5
2016-07-05T05:15:57.006Z,70.5
2016-07-05T05:16:56.990Z,70.5
2016-07-05T05:17:56.994Z,70.31
2016-07-05T05:18:56.992Z,70.21
2016-07-05T05:19:56.991Z,70.31
2016-07-05T05:20:56.990Z,70.6
2016-07-05T05:21:56.984Z,70.5
2016-07-05T05:22:56.985Z,70.98
2016-07-05T05:23:56.980Z,70.6
2016-07-05T05:24:56.985Z,70.6
2016-07-05T05:25:56.983Z,70.6
2016-07-05T05:26:56.986Z,70.6
2016-07-05T05:27:57.185Z,70.79
2016-07-05T05:28:57.185Z,70.7
2016-07-05T05:29:56.984Z,70.79
2016-07-05T05:30:56.986Z,70.98
2016-07-05T05:31:56.982Z,71.08
2016-07-05T05:32:56.978Z,71.08
2016-07-05T05:33:56.965Z,70.98
2016-07-05T05:34:56.965Z,70.98
2016-07-05T05:35:56.977Z,70.98
2016-07-05T05:36:56.974Z,71.08
2016-07-05T05:37:56.960Z,71.08
2016-07-05T05:38:56.960Z,71.04
2016-07-05T05:39:56.958Z,70.98
2016-07-05T05:40:57.372Z,70.89
2016-07-05T05:41:56.971Z,70.79
2016-07-05T05:42:56.968Z,70.28
2016-07-05T05:43:57.161Z,70.12
2016-07-05T05:44:56.962Z,69.51
2016-07-05T05:45:57.166Z,69.6
2016-07-05T05:46:56.957Z,69.64
2016-07-05T05:47:56.956Z,69.31
2016-07-05T05:48:56.956Z,68.87
2016-07-05T05:49:57.162Z,69.02
2016-07-05T05:50:56.953Z,68.96
2016-07-05T05:51:57.159Z,69.25
2016-07-05T05:52:56.956Z,69.06
2016-07-05T05:53:58.181Z,69.31
2016-07-05T05:54:56.954Z,69.22
2016-07-05T05:55:56.950Z,69.6
2016-07-05T05:56:56.944Z,69.31
2016-07-05T05:57:56.942Z,69.89
2016-07-05T05:58:57.156Z,69.6
2016-07-05T05:59:56.939Z,69.7
2016-07-05T06:00:56.961Z,69.12
2016-07-05T06:01:56.939Z,69.22
2016-07-05T06:02:56.945Z,70.09
2016-07-05T06:03:56.937Z,70.28
2016-07-05T06:04:56.939Z,70.09
2016-07-05T06:05:56.973Z,70.18
2016-07-05T06:06:57.149Z,70.56
2016-07-05T06:07:56.936Z,70.95
2016-07-05T06:08:56.934Z,70.66
2016-07-05T06:09:56.934Z,70.28
2016-07-05T06:10:56.926Z,69.79
2016-07-05T06:11:56.914Z,70.66
2016-07-05T06:12:56.930Z,72.3
2016-07-05T06:13:56.924Z,73.26
2016-07-05T06:14:56.919Z,73.07
2016-07-05T06:15:56.914Z,73.74
2016-07-05T06:16:56.925Z,74.22
2016-07-05T06:18:34.198Z,73.84
2016-07-05T06:19:34.191Z,74.32
2016-07-05T06:20:34.197Z,75.28
2016-07-05T06:21:34.204Z,75.28
2016-07-05T06:22:34.220Z,73.94
2016-07-05T06:23:34.204Z,74.22
2016-07-05T06:24:34.394Z,75.09
2016-07-05T06:25:34.191Z,75.19
2016-07-05T06:26:34.184Z,76.15
2016-07-05T06:27:35.320Z,76.38
2016-07-05T06:28:34.185Z,76.73
2016-07-05T06:29:34.185Z,77.15
2016-07-05T06:30:34.181Z,78.4
2016-07-05T06:31:34.193Z,78.31
2016-07-05T06:32:34.180Z,78.21
2016-07-05T06:33:34.195Z,79.36
2016-07-05T06:34:34.187Z,78.88
2016-07-05T06:35:34.204Z,78.59
2016-07-05T06:36:34.181Z,78.31
2016-07-05T06:37:34.189Z,79.08
2016-07-05T06:38:34.200Z,78.59
2016-07-05T06:39:34.207Z,78.83
2016-07-05T06:40:34.174Z,78.79
2016-07-05T06:41:34.171Z,79.08
2016-07-05T06:42:34.168Z,78.63
2016-07-05T06:43:34.168Z,78.44
2016-07-05T06:44:34.168Z,78.15
2016-07-05T06:45:34.167Z,77.96
2016-07-05T06:46:34.164Z,77.58
2016-07-05T06:47:34.169Z,77.09
2016-07-05T06:48:35.869Z,77.09
2016-07-05T06:49:34.214Z,76.9
2016-07-05T06:50:34.162Z,77.19
2016-07-05T06:51:34.414Z,76.9
2016-07-05T06:52:34.177Z,76.51
2016-07-05T06:53:39.703Z,76.23
2016-07-05T06:54:34.193Z,75.97
2016-07-05T06:55:34.167Z,75.68
2016-07-05T06:56:34.165Z,75.68
2016-07-05T06:57:34.170Z,75.1
2016-07-05T06:58:34.181Z,74.14
2016-07-05T06:59:34.297Z,74.62
2016-07-05T07:00:34.171Z,73.95
2016-07-05T07:01:34.168Z,73.66
2016-07-05T07:02:34.165Z,73.37
2016-07-05T07:03:34.172Z,73.08
2016-07-05T07:04:34.169Z,72.99
2016-07-05T07:05:34.159Z,72.89
2016-07-05T07:06:34.219Z,72.44
2016-07-05T07:07:34.198Z,72.54
2016-07-05T07:08:34.368Z,72.63
2016-07-05T07:09:35.676Z,72.06
2016-07-05T07:10:34.160Z,71.48
2016-07-05T07:11:34.171Z,71.58
2016-07-05T07:12:34.325Z,70.9
2016-07-05T07:13:34.157Z,70.32
2016-07-05T07:14:34.501Z,70.42
2016-07-05T07:15:34.173Z,69.74
2016-07-05T07:16:34.377Z,69.74
2016-07-05T07:17:34.273Z,70.03
2016-07-05T07:18:34.383Z,69.84
2016-07-05T07:19:34.254Z,69.64
2016-07-05T07:20:35.431Z,70.32
2016-07-05T07:21:34.199Z,69.93
2016-07-05T07:22:34.172Z,69.68
2016-07-05T07:23:34.222Z,69.87
2016-07-05T07:24:34.162Z,69.87
2016-07-05T07:25:34.174Z,69.87
2016-07-05T07:26:34.165Z,70.06
2016-07-05T07:27:34.457Z,69.97
2016-07-05T07:28:34.456Z,70.06
2016-07-05T07:29:34.486Z,69.68
2016-07-05T07:30:34.475Z,69.87
2016-07-05T07:31:34.164Z,69.78
2016-07-05T07:32:34.165Z,69.58
2016-07-05T07:33:34.172Z,69.42
2016-07-05T07:34:34.197Z,69.23
2016-07-05T07:35:34.171Z,68.75
2016-07-05T07:36:34.789Z,68.75
2016-07-05T07:37:34.190Z,68.26
2016-07-05T07:38:34.174Z,68.46
2016-07-05T07:39:34.173Z,68.36
2016-07-05T07:40:34.179Z,68.13
2016-07-05T07:41:34.181Z,68.13
2016-07-05T07:42:34.178Z,68.43
2016-07-05T07:43:34.178Z,68.23
2016-07-05T07:44:34.178Z,68.04
2016-07-05T07:45:34.189Z,68.33
2016-07-05T07:46:39.156Z,67.94
2016-07-05T07:47:36.983Z,67.49
2016-07-05T07:48:34.183Z,67.65
2016-07-05T07:49:34.180Z,67.55
2016-07-05T07:50:34.208Z,67.78
2016-07-05T07:51:34.192Z,67.88
2016-07-05T07:52:34.196Z,68.46
2016-07-05T07:53:43.638Z,68.94
2016-07-05T07:54:36.040Z,68.75
2016-07-05T07:55:34.185Z,68.84
2016-07-05T07:56:36.620Z,68.55
2016-07-05T07:57:34.197Z,68.75
2016-07-05T07:58:34.203Z,68.84
2016-07-05T07:59:34.202Z,68.49
2016-07-05T08:00:34.195Z,68.94
2016-07-05T08:01:34.219Z,68.88
2016-07-05T08:02:34.196Z,68.75
2016-07-05T08:03:34.201Z,68.78
2016-07-05T08:04:34.198Z,68.68
2016-07-05T08:05:34.203Z,68.68
2016-07-05T08:06:34.199Z,68.78
2016-07-05T08:07:38.293Z,68.88
2016-07-05T08:08:34.213Z,68.59
2016-07-05T08:09:34.202Z,68.88
2016-07-05T08:10:34.205Z,68.88
2016-07-05T08:11:34.204Z,68.98
2016-07-05T08:12:34.199Z,68.98
2016-07-05T08:13:34.204Z,68.68
2016-07-05T08:14:34.208Z,68.82
2016-07-05T08:15:34.242Z,68.72
2016-07-05T08:16:34.275Z,68.91
2016-07-05T08:17:34.226Z,68.14
2016-07-05T08:18:34.202Z,68.14
2016-07-05T08:19:34.210Z,68.62
2016-07-05T08:20:34.219Z,68.33
2016-07-05T08:21:34.214Z,68.43
2016-07-05T08:22:34.412Z,68.33
2016-07-05T08:23:34.411Z,68.14
2016-07-05T08:24:34.211Z,67.94
2016-07-05T08:25:34.214Z,67.85
2016-07-05T08:26:34.214Z,67.46
2016-07-05T08:27:34.219Z,67.85
2016-07-05T08:28:34.224Z,68.43
2016-07-05T08:29:34.228Z,68.91
2016-07-05T08:30:34.222Z,68.82
2016-07-05T08:31:34.220Z,68.52
2016-07-05T08:32:34.258Z,69.3
2016-07-05T08:33:34.227Z,69.59
2016-07-05T08:34:36.162Z,69.1
2016-07-05T08:35:34.239Z,68.82
2016-07-05T08:36:34.434Z,69.01
2016-07-05T08:37:34.238Z,68.82
2016-07-05T08:38:34.262Z,68.62
2016-07-05T08:39:34.229Z,69.49
2016-07-05T08:40:34.275Z,69.59
2016-07-05T08:41:34.266Z,68.91
2016-07-05T08:42:34.252Z,68.82
2016-07-05T08:43:34.454Z,68.91
2016-07-05T08:44:34.256Z,68.14
2016-07-05T08:45:34.255Z,67.85
2016-07-05T08:46:35.059Z,68.1
2016-07-05T08:47:34.250Z,67.56
2016-07-05T08:48:34.264Z,67.36
2016-07-05T08:49:34.246Z,67.82
2016-07-05T08:50:34.457Z,67.62
2016-07-05T08:51:34.257Z,68.1
2016-07-05T08:52:34.248Z,67.43
2016-07-05T08:53:34.259Z,67.33
2016-07-05T08:54:34.264Z,67.14
2016-07-05T08:55:34.260Z,67.17
2016-07-05T08:56:34.270Z,67.43
2016-07-05T08:57:34.253Z,67.52
2016-07-05T08:58:34.255Z,67.27
2016-07-05T08:59:34.257Z,67.36
2016-07-05T09:00:34.262Z,67.36
2016-07-05T09:01:34.427Z,67.46
2016-07-05T09:02:34.258Z,67.66
2016-07-05T09:03:34.266Z,67.17
2016-07-05T09:04:34.274Z,67.36
2016-07-05T09:05:34.287Z,67.46
2016-07-05T09:06:34.285Z,67.85
2016-07-05T09:07:34.298Z,67.66
2016-07-05T09:08:34.285Z,67.94
2016-07-05T09:09:34.286Z,68.14
2016-07-05T09:10:34.274Z,68.52
2016-07-05T09:11:34.293Z,68.62
2016-07-05T09:12:34.285Z,68.04
2016-07-05T09:13:34.289Z,68.24
2016-07-05T09:14:34.478Z,67.85
2016-07-05T09:15:34.298Z,68.24
2016-07-05T09:16:34.271Z,68.14
2016-07-05T09:17:34.277Z,68.43
2016-07-05T09:18:34.302Z,68.43
2016-07-05T09:19:34.285Z,68.52
2016-07-05T09:20:34.285Z,68.52
2016-07-05T09:21:34.282Z,68.52
2016-07-05T09:22:34.284Z,68.78
2016-07-05T09:23:34.303Z,68.59
2016-07-05T09:24:34.289Z,68.91
2016-07-05T09:25:34.485Z,68.88
2016-07-05T09:26:34.301Z,69.46
2016-07-05T09:27:34.294Z,69.26
2016-07-05T09:28:34.286Z,69.36
2016-07-05T09:29:34.298Z,69.74
2016-07-05T09:30:34.298Z,69.56
2016-07-05T09:31:34.298Z,69.65
2016-07-05T09:32:34.300Z,69.65
2016-07-05T09:33:34.296Z,69.65
2016-07-05T09:34:34.345Z,70.04
2016-07-05T09:35:34.508Z,69.65
2016-07-05T09:36:34.304Z,69.56
2016-07-05T09:37:34.298Z,69.84
2016-07-05T09:38:34.299Z,69.74
2016-07-05T09:39:34.301Z,69.56
2016-07-05T09:40:34.295Z,69.65
2016-07-05T09:41:34.299Z,69.56
2016-07-05T09:42:34.298Z,69.74
2016-07-05T09:43:34.297Z,69.56
2016-07-05T09:44:34.498Z,69.36
2016-07-05T09:45:34.300Z,69.65
2016-07-05T09:46:34.290Z,69.26
2016-07-05T09:47:34.849Z,69.46
2016-07-05T09:48:34.297Z,69.46
2016-07-05T09:49:34.296Z,69.56
2016-07-05T09:50:34.299Z,70.32
2016-07-05T09:51:34.299Z,69.94
2016-07-05T09:52:34.299Z,69.46
2016-07-05T09:53:34.298Z,69.07
2016-07-05T09:54:34.299Z,68.82
2016-07-05T09:55:34.504Z,68.82
2016-07-05T09:56:34.303Z,68.78
2016-07-05T09:57:34.797Z,69.07
2016-07-05T09:58:34.300Z,68.98
2016-07-05T09:59:34.291Z,68.98
2016-07-05T10:00:34.303Z,68.98
2016-07-05T10:01:34.304Z,69.07
2016-07-05T10:02:34.309Z,68.68
2016-07-05T10:03:34.303Z,68.88
2016-07-05T10:04:34.306Z,68.88
2016-07-05T10:05:34.499Z,68.88
2016-07-05T10:06:34.306Z,68.68
2016-07-05T10:07:34.508Z,69.07
2016-07-05T10:08:34.309Z,69.23
2016-07-05T10:09:34.443Z,69.46
2016-07-05T10:10:34.511Z,69.46
2016-07-05T10:11:34.306Z,69.46
2016-07-05T10:12:34.380Z,69.46
2016-07-05T10:13:34.347Z,69.56
2016-07-05T10:14:34.335Z,69.36
2016-07-05T10:15:34.309Z,69.26
2016-07-05T10:16:34.309Z,70.78
2016-07-05T10:17:34.314Z,70.72
2016-07-05T10:18:34.311Z,70.42
2016-07-05T10:19:34.511Z,70.72
2016-07-05T10:20:34.311Z,70.52
2016-07-05T10:21:34.313Z,70.62
2016-07-05T10:22:34.308Z,69.65
2016-07-05T10:23:34.310Z,68.78
2016-07-05T10:24:34.310Z,68.2
2016-07-05T10:25:34.309Z,67.24
2016-07-05T10:26:34.514Z,66.94
2016-07-05T10:27:34.314Z,67.14
2016-07-05T10:28:34.308Z,67.14
2016-07-05T10:29:34.318Z,67.52
2016-07-05T10:30:34.314Z,67.52
2016-07-05T10:31:34.314Z,67.62
2016-07-05T10:32:34.322Z,67.33
2016-07-05T10:33:34.313Z,67.33
2016-07-05T10:34:34.322Z,67.43
2016-07-05T10:35:34.316Z,67.52
2016-07-05T10:36:34.321Z,68.2
2016-07-05T10:37:34.315Z,68.3
2016-07-05T10:38:34.318Z,67.14
2016-07-05T10:39:34.323Z,67.62
2016-07-05T10:40:34.322Z,67.78
2016-07-05T10:41:34.326Z,67.72
2016-07-05T10:42:34.337Z,67.91
2016-07-05T10:43:34.329Z,67.82
2016-07-05T10:44:34.327Z,68.49
2016-07-05T10:45:34.328Z,68.88
2016-07-05T10:46:34.334Z,68.88
2016-07-05T10:47:34.331Z,68.49
2016-07-05T10:48:34.330Z,68.49
2016-07-05T10:49:34.362Z,68.2
2016-07-05T10:50:34.336Z,68.2
2016-07-05T10:51:34.339Z,68.2
2016-07-05T10:52:34.336Z,67.75
2016-07-05T10:53:34.342Z,67.43
2016-07-05T10:54:34.338Z,68.14
2016-07-05T10:55:34.338Z,68.4
2016-07-05T10:56:34.347Z,68.59
2016-07-05T10:57:34.344Z,68.49
2016-07-05T10:58:34.550Z,68.3
2016-07-05T10:59:34.465Z,68.59
2016-07-05T11:00:34.466Z,68.4
2016-07-05T11:01:35.080Z,68.3
2016-07-05T11:02:39.174Z,68.4
2016-07-05T11:03:34.351Z,68.2
2016-07-05T11:04:34.352Z,69.17
2016-07-05T11:05:34.870Z,69.65
2016-07-05T11:06:36.582Z,69.56
2016-07-05T11:07:42.882Z,68.78
2016-07-05T11:08:35.649Z,69.26
2016-07-05T11:09:34.535Z,68.82
2016-07-05T11:10:34.498Z,69.56
2016-07-05T11:11:46.044Z,69.74
2016-07-05T11:12:35.070Z,68.68
2016-07-05T11:13:34.371Z,68.59
2016-07-05T11:14:34.366Z,68.4
2016-07-05T11:15:34.368Z,68.49
2016-07-05T11:16:34.385Z,68.24
2016-07-05T11:17:34.377Z,68.24
2016-07-05T11:18:34.446Z,68.43
2016-07-05T11:19:37.338Z,68.52
2016-07-05T11:20:34.380Z,68.52
2016-07-05T11:21:34.379Z,68.24
2016-07-05T11:22:34.374Z,68.52
2016-07-05T11:23:35.179Z,68.14
2016-07-05T11:24:34.378Z,68.14
2016-07-05T11:25:34.386Z,68.04
2016-07-05T11:26:34.391Z,68.14
2016-07-05T11:27:34.388Z,67.85
2016-07-05T11:28:34.393Z,67.66
2016-07-05T11:29:34.452Z,67.46
2016-07-05T11:30:34.396Z,67.56
2016-07-05T11:31:34.392Z,67.36
2016-07-05T11:32:34.398Z,67.46
2016-07-05T11:33:34.408Z,67.36
2016-07-05T11:34:34.400Z,67.46
2016-07-05T11:35:34.468Z,67.56
2016-07-05T11:36:34.402Z,67.56
2016-07-05T11:37:34.407Z,67.46
2016-07-05T11:38:34.401Z,66.98
2016-07-05T11:39:34.402Z,67.08
2016-07-05T11:40:34.408Z,67.08
2016-07-05T11:41:34.412Z,67.17
2016-07-05T11:42:34.622Z,67.17
2016-07-05T11:43:34.628Z,67.21
2016-07-05T11:44:34.476Z,67.11
2016-07-05T11:45:34.448Z,67.01
2016-07-05T11:46:34.442Z,67.21
2016-07-05T11:47:34.424Z,66.91
2016-07-05T11:48:43.082Z,67.21
2016-07-05T11:49:47.487Z,66.72
2016-07-05T11:50:34.732Z,66.91
2016-07-05T11:51:34.822Z,66.53
2016-07-05T11:52:34.461Z,66.43
2016-07-05T11:53:35.434Z,66.72
2016-07-05T11:54:36.227Z,66.72
2016-07-05T11:55:34.529Z,66.05
2016-07-05T11:56:34.510Z,66.27
2016-07-05T11:57:34.433Z,66.37
2016-07-05T11:58:40.469Z,66.85
2016-07-05T11:59:34.502Z,66.75
2016-07-05T12:00:34.437Z,66.56
2016-07-05T12:01:34.459Z,66.47
2016-07-05T12:02:34.454Z,66.85
2016-07-05T12:03:34.461Z,66.66
2016-07-05T12:04:34.452Z,66.47
2016-07-05T12:05:34.448Z,66.75
2016-07-05T12:06:34.662Z,66.66
2016-07-05T12:07:35.297Z,66.47
2016-07-05T12:08:34.475Z,66.66
2016-07-05T12:09:37.865Z,66.6
2016-07-05T12:10:34.500Z,66.88
2016-07-05T12:11:34.488Z,66.78
2016-07-05T12:12:34.480Z,66.98
2016-07-05T12:13:34.467Z,66.69
2016-07-05T12:14:34.579Z,66.88
2016-07-05T12:15:35.153Z,66.98
2016-07-05T12:16:34.512Z,66.88
2016-07-05T12:17:34.500Z,67.18
2016-07-05T12:18:34.525Z,66.78
2016-07-05T12:19:34.465Z,66.88
2016-07-05T12:20:34.488Z,66.69
2016-07-05T12:21:34.676Z,67.11
2016-07-05T12:22:34.479Z,67.11
2016-07-05T12:23:34.483Z,67.21
2016-07-05T12:24:34.491Z,66.72
2016-07-05T12:25:34.495Z,67.02
2016-07-05T12:26:34.692Z,66.92
2016-07-05T12:27:34.502Z,67.02
2016-07-05T12:28:43.552Z,66.92
2016-07-05T12:29:35.397Z,67.21
2016-07-05T12:30:34.707Z,67.5
2016-07-05T12:31:34.506Z,67.6
2016-07-05T12:32:34.504Z,67.6
2016-07-05T12:33:34.512Z,67.37
2016-07-05T12:34:35.696Z,67.76
2016-07-05T12:35:34.529Z,67.46
2016-07-05T12:36:34.512Z,67.46
2016-07-05T12:37:34.519Z,67.56
2016-07-05T12:38:45.585Z,67.76
2016-07-05T12:39:46.913Z,68.15
2016-07-05T12:40:38.066Z,68.15
2016-07-05T12:41:37.098Z,68.91
2016-07-05T12:42:35.117Z,69.59
2016-07-05T12:43:34.601Z,69.59
2016-07-05T12:44:35.349Z,69.69
2016-07-05T12:45:34.536Z,69.5
2016-07-05T12:46:34.547Z,69.79
2016-07-05T12:47:34.753Z,69.89
2016-07-05T12:48:34.553Z,69.5
2016-07-05T12:49:34.561Z,69.5
2016-07-05T12:50:34.759Z,69.79
2016-07-05T12:51:34.555Z,69.17
2016-07-05T12:52:34.574Z,68.4
2016-07-05T12:53:34.767Z,68.3
2016-07-05T12:54:34.566Z,68.49
2016-07-05T12:55:34.579Z,68.49
2016-07-05T12:56:34.605Z,68.69